Time;durP1;ratioP1;P1;durP2;ratioP2;P2;SDS_P1;SDS_P2;PMS_P1;PMS_P2;Temp;Humidity;BMP_temperature;BMP_pressure;BME280_temperature;BME280_humidity;BME280_pressure;Samples;Min_cycle;Max_cycle;Signal;HPM_P1;HPM_P2
2022/12/06 00:00:09;;;;;;;10.00;8.57;;;;;;;4.95;100.00;101929.59;5171130;28;20070;-71
2022/12/06 00:02:40;;;;;;;10.40;8.43;;;;;;;4.99;100.00;101944.25;5174967;28;20030;-71
2022/12/06 00:05:12;;;;;;;10.37;9.13;;;;;;;4.93;100.00;101942.59;5172041;28;20051;-71
2022/12/06 00:07:43;;;;;;;13.33;8.73;;;;;;;4.94;100.00;101935.69;5179325;28;20018;-71
2022/12/06 00:10:15;;;;;;;10.40;8.63;;;;;;;4.96;100.00;101939.94;5184850;28;20029;-71
2022/12/06 00:12:46;;;;;;;12.20;8.70;;;;;;;4.83;100.00;101920.28;5174106;28;20018;-71
2022/12/06 00:15:17;;;;;;;9.73;8.47;;;;;;;4.97;100.00;101939.03;5186086;28;20540;-71
2022/12/06 00:17:49;;;;;;;9.67;8.70;;;;;;;4.98;100.00;101939.91;5175990;28;20073;-71
2022/12/06 00:20:20;;;;;;;10.63;8.63;;;;;;;5.04;100.00;101941.53;5175905;28;20113;-71
2022/12/06 00:22:51;;;;;;;9.80;8.17;;;;;;;5.04;100.00;101941.53;5175365;28;20482;-71
2022/12/06 00:25:22;;;;;;;10.53;8.13;;;;;;;5.03;100.00;101934.63;5175785;28;20074;-71
2022/12/06 00:27:54;;;;;;;8.80;7.80;;;;;;;5.05;100.00;101936.31;5175648;28;20050;-70
2022/12/06 00:30:25;;;;;;;9.50;8.40;;;;;;;4.99;100.00;101936.44;5185018;28;20576;-71
2022/12/06 00:32:56;;;;;;;9.73;8.30;;;;;;;4.97;100.00;101925.22;5192371;28;20015;-71
2022/12/06 00:35:28;;;;;;;10.63;8.10;;;;;;;5.00;100.00;101935.56;5183161;28;20030;-71
2022/12/06 00:37:59;;;;;;;9.23;8.00;;;;;;;4.96;100.00;101926.09;5179727;28;20014;-71
2022/12/06 00:40:30;;;;;;;9.17;8.23;;;;;;;4.93;100.00;101914.03;5175543;28;20418;-71
2022/12/06 00:43:02;;;;;;;9.73;8.23;;;;;;;5.04;100.00;101931.16;5174534;28;20066;-71
2022/12/06 00:45:33;;;;;;;9.87;7.63;;;;;;;5.03;100.00;101934.63;5175676;28;20037;-70
2022/12/06 00:48:04;;;;;;;9.80;8.07;;;;;;;5.02;100.00;101931.19;5174286;28;20099;-71
2022/12/06 00:50:36;;;;;;;9.80;7.17;;;;;;;4.93;100.00;101923.56;5175031;28;20033;-70
2022/12/06 00:53:07;;;;;;;10.33;8.27;;;;;;;5.08;100.00;101935.38;5174733;28;20069;-70
2022/12/06 00:55:38;;;;;;;10.77;7.87;;;;;;;4.98;100.00;101926.94;5174839;28;20023;-71
2022/12/06 00:58:11;;;;;;;8.33;7.37;;;;;;;5.10;100.00;101933.63;5174613;28;20366;-70
2022/12/06 01:00:43;;;;;;;9.20;7.90;;;;;;;5.05;100.00;101932.84;5173715;28;20105;-71
2022/12/06 01:03:14;;;;;;;7.67;6.80;;;;;;;5.03;100.00;101934.63;5174748;28;20034;-71
2022/12/06 01:05:48;;;;;;;9.67;7.03;;;;;;;5.06;100.00;101939.78;5174851;28;20038;-70
2022/12/06 01:08:19;;;;;;;11.07;7.90;;;;;;;5.00;100.00;101934.69;5174781;28;20556;-70
2022/12/06 01:10:52;;;;;;;8.30;7.30;;;;;;;4.95;100.00;101938.25;5188045;28;20073;-71
2022/12/06 01:13:24;;;;;;;8.47;7.60;;;;;;;5.00;100.00;101932.09;5175310;28;20463;-71
2022/12/06 01:15:56;;;;;;;8.40;7.33;;;;;;;5.08;100.00;101933.66;5173023;28;20033;-71
2022/12/06 01:18:27;;;;;;;7.57;6.77;;;;;;;4.95;100.00;101927.84;5174677;28;20100;-71
2022/12/06 01:21:04;;;;;;;11.20;8.00;;;;;;;5.11;100.00;101932.75;5174454;28;20113;-71
2022/12/06 01:23:35;;;;;;;8.23;7.33;;;;;;;4.98;100.00;101942.50;5169442;28;20023;-71
2022/12/06 01:26:14;;;;;;;7.57;6.77;;;;;;;5.09;100.00;101937.13;5174449;28;20073;-71
2022/12/06 01:28:45;;;;;;;8.97;7.60;;;;;;;5.08;100.00;101933.66;5173726;28;20485;-71
2022/12/06 01:31:17;;;;;;;9.53;7.53;;;;;;;5.13;100.00;101938.75;5171747;28;20030;-70
2022/12/06 01:33:48;;;;;;;9.47;7.07;;;;;;;5.05;100.00;101935.47;5173547;28;20033;-71
2022/12/06 01:36:22;;;;;;;7.33;6.50;;;;;;;5.05;100.00;101933.72;5176741;28;20023;-71
2022/12/06 01:38:57;;;;;;;8.82;6.70;;;;;;;5.04;100.00;101944.16;5179198;28;20039;-71
2022/12/06 01:41:28;;;;;;;6.70;5.97;;;;;;;5.13;100.00;101936.16;5173871;28;20110;-71
2022/12/06 01:44:00;;;;;;;7.07;5.83;;;;;;;5.11;100.00;101937.97;5174186;28;20105;-70
2022/12/06 01:46:43;;;;;;;8.57;7.13;;;;;;;5.10;100.00;101936.22;5173322;28;20986;-71
2022/12/06 01:49:20;;;;;;;8.77;7.87;;;;;;;5.13;100.00;101930.97;5174395;28;20027;-71
2022/12/06 01:52:03;;;;;;;7.40;6.30;;;;;;;5.11;100.00;101931.91;5173930;28;20101;-71
2022/12/06 01:54:35;;;;;;;7.73;6.50;;;;;;;5.14;100.00;101931.84;5174686;28;20034;-71
2022/12/06 01:57:09;;;;;;;8.93;6.80;;;;;;;5.12;100.00;101928.41;5173351;28;20090;-71
2022/12/06 01:59:41;;;;;;;;;;;;;;;5.27;100.00;101924.66;5174738;28;20023;-71
2022/12/06 02:02:12;;;;;;;8.03;6.50;;;;;;;5.15;100.00;101920.56;5172526;28;19921;-71
2022/12/06 02:04:44;;;;;;;9.40;6.93;;;;;;;5.12;100.00;101923.22;5172367;28;20027;-71
2022/12/06 02:07:16;;;;;;;10.00;7.17;;;;;;;5.17;100.00;101927.44;5173798;28;20038;-71
2022/12/06 02:09:50;;;;;;;9.73;7.57;;;;;;;5.11;100.00;101931.91;5181090;28;20421;-71
2022/12/06 02:12:21;;;;;;;10.35;6.82;;;;;;;5.13;100.00;101924.94;5227042;23;20051;-71
2022/12/06 02:14:53;;;;;;;8.27;6.27;;;;;;;5.01;100.00;101934.66;5173730;28;20146;-71
2022/12/06 02:17:39;;;;;;;8.00;6.33;;;;;;;5.16;100.00;101935.25;5202963;28;20535;-71
2022/12/06 02:20:22;;;;;;;9.00;6.73;;;;;;;5.17;100.00;101931.75;5171780;28;20031;-71
2022/12/06 02:23:22;;;;;;;8.53;6.57;;;;;;;5.17;100.00;101930.03;5173765;28;20041;-71
2022/12/06 02:26:15;;;;;;;8.27;6.20;;;;;;;5.10;100.00;101919.81;5158836;28;20466;-71
2022/12/06 02:28:58;;;;;;;9.13;6.60;;;;;;;5.12;100.00;101933.59;5174220;28;20381;-71
2022/12/06 02:31:38;;;;;;;9.00;7.33;;;;;;;5.14;100.00;101921.44;5173052;28;20030;-70
2022/12/06 02:34:15;;;;;;;8.30;6.60;;;;;;;5.08;100.00;101918.09;5173162;28;20054;-71
2022/12/06 02:37:02;;;;;;;7.37;5.87;;;;;;;5.02;100.00;101913.00;5173805;28;20429;-71
2022/12/06 02:39:57;;;;;;;7.40;5.97;;;;;;;5.14;100.00;101911.06;5172509;28;20023;-71
2022/12/06 02:42:44;;;;;;;7.23;5.93;;;;;;;5.18;100.00;101918.75;5174129;28;20026;-71
2022/12/06 02:45:25;;;;;;;8.73;6.13;;;;;;;5.10;100.00;101909.41;5179579;28;20045;-71
2022/12/06 02:48:01;;;;;;;7.50;6.30;;;;;;;5.17;100.00;101916.19;5172975;28;20557;-71
2022/12/06 02:50:42;;;;;;;10.70;6.10;;;;;;;5.06;100.00;101906.84;5174202;28;20042;-71
2022/12/06 02:53:18;;;;;;;11.17;7.27;;;;;;;5.11;100.00;101908.53;5173662;28;20035;-71
2022/12/06 02:55:50;;;;;;;7.17;5.70;;;;;;;5.02;100.00;101909.56;5173554;28;20027;-71
2022/12/06 02:58:21;;;;;;;10.33;6.43;;;;;;;5.12;100.00;101912.81;5169670;28;20580;-71
2022/12/06 03:00:58;;;;;;;7.40;5.97;;;;;;;5.05;100.00;101893.91;5167032;28;20019;-71
2022/12/06 03:03:38;;;;;;;7.43;6.13;;;;;;;5.13;100.00;101905.00;5169983;28;20074;-71
2022/12/06 03:06:31;;;;;;;7.00;6.03;;;;;;;5.12;100.00;101910.22;5173303;28;20101;-71
2022/12/06 03:09:05;;;;;;;8.03;6.57;;;;;;;5.07;100.00;101911.19;5154399;28;21144;-71
2022/12/06 03:12:04;;;;;;;10.60;7.00;;;;;;;5.10;100.00;101899.88;5166703;28;20916;-71
2022/12/06 03:14:44;;;;;;;10.33;6.50;;;;;;;5.01;100.00;101895.72;5173510;28;20046;-70
2022/12/06 03:17:28;;;;;;;8.93;5.77;;;;;;;5.09;100.00;101908.56;5172693;28;20023;-71
2022/12/06 03:20:07;;;;;;;11.80;7.38;;;;;;;5.06;100.00;101914.66;5163733;28;20039;-70
2022/12/06 03:22:45;;;;;;;8.60;6.17;;;;;;;5.10;100.00;101914.63;5176138;28;20474;-71
2022/12/06 03:25:16;;;;;;;10.57;7.30;;;;;;;4.99;100.00;101915.69;5175356;28;20027;-71
2022/12/06 03:27:50;;;;;;;7.83;6.33;;;;;;;5.13;100.00;101919.75;5170547;28;20026;-71
2022/12/06 03:30:22;;;;;;;8.87;5.90;;;;;;;5.12;100.00;101918.00;5165079;28;20031;-71
2022/12/06 03:32:54;;;;;;;8.63;6.40;;;;;;;5.08;100.00;101914.63;5169181;28;20046;-70
2022/12/06 03:35:30;;;;;;;11.93;6.90;;;;;;;5.05;100.00;101918.16;5170067;28;20109;-70
2022/12/06 03:38:32;;;;;;;9.50;7.10;;;;;;;5.11;100.00;101918.91;5164399;28;20034;-70
2022/12/06 03:41:06;;;;;;;11.20;7.00;;;;;;;5.05;100.00;101920.75;5159474;28;20042;-70
2022/12/06 03:43:37;;;;;;;10.77;7.70;;;;;;;5.06;100.00;101913.81;5160153;28;20058;-70
2022/12/06 03:46:18;;;;;;;11.53;6.17;;;;;;;5.08;100.00;101912.88;5172305;28;20101;-71
2022/12/06 03:48:57;;;;;;;7.83;6.23;;;;;;;5.02;100.00;101914.75;5176729;28;20026;-71
2022/12/06 03:51:33;;;;;;;12.17;6.87;;;;;;;5.03;100.00;101903.47;5157751;28;20026;-71
2022/12/06 03:54:06;;;;;;;10.57;7.47;;;;;;;5.02;100.00;101905.22;5159096;28;20031;-70
2022/12/06 03:56:38;;;;;;;8.53;6.60;;;;;;;5.06;100.00;101917.25;5160693;28;20030;-70
2022/12/06 03:59:10;;;;;;;10.80;7.30;;;;;;;5.07;100.00;101924.16;5155898;28;20023;-71
2022/12/06 04:01:41;;;;;;;9.63;7.30;;;;;;;5.06;100.00;101909.47;5155559;29;20035;-71
2022/12/06 04:04:12;;;;;;;8.50;6.93;;;;;;;5.08;100.00;101915.47;5186683;28;20111;-71
2022/12/06 04:06:44;;;;;;;7.50;6.63;;;;;;;5.00;100.00;101914.78;5187087;28;20054;-71
2022/12/06 04:12:59;;;;;;;10.97;7.87;;;;;;;5.07;100.00;101915.50;5155832;28;20055;-71
2022/12/06 04:14:56;;;;;;;16.67;9.97;;;;;;;5.14;100.00;101909.31;5155308;29;20039;-71
2022/12/06 04:20:18;;;;;;;9.73;8.00;;;;;;;5.04;100.00;101908.66;5155908;28;20023;-70
2022/12/06 04:23:04;;;;;;;15.70;8.60;;;;;;;4.88;100.00;101899.44;5155261;28;20031;-70
2022/12/06 04:25:35;;;;;;;10.57;7.83;;;;;;;5.11;100.00;101914.59;5155501;28;20034;-70
2022/12/06 04:39:27;;;;;;;15.13;9.33;;;;;;;5.02;100.00;101907.81;5155529;28;20027;-70
2022/12/06 04:44:49;;;;;;;13.37;8.37;;;;;;;5.03;100.00;101893.94;5143355;28;20074;-70
2022/12/06 04:47:20;;;;;;;15.40;8.90;;;;;;;4.97;100.00;101899.28;5170658;28;20038;-71
2022/12/06 04:49:51;;;;;;;13.67;8.37;;;;;;;5.01;100.00;101906.09;5155020;28;20119;-71
2022/12/06 04:52:23;;;;;;;17.23;8.10;;;;;;;5.04;100.00;101916.44;5158267;28;20043;-71
2022/12/06 04:54:54;;;;;;;12.20;8.10;;;;;;;5.10;100.00;101904.22;5155398;28;20029;-70
2022/12/06 04:57:25;;;;;;;16.70;8.00;;;;;;;5.01;100.00;101911.28;5158927;28;20027;-71
2022/12/06 04:59:56;;;;;;;12.17;8.53;;;;;;;5.05;100.00;101910.34;5155233;28;20038;-71
2022/12/06 05:02:28;;;;;;;17.27;9.17;;;;;;;5.08;100.00;101907.69;5160425;28;20034;-71
2022/12/06 05:04:59;;;;;;;12.73;8.87;;;;;;;5.14;100.00;101911.06;5185462;28;20051;-71
2022/12/06 05:07:30;;;;;;;13.37;8.40;;;;;;;5.05;100.00;101891.31;5162549;28;20102;-71
2022/12/06 05:10:02;;;;;;;15.73;8.47;;;;;;;5.16;100.00;101906.69;5154578;28;20040;-71
2022/12/06 05:12:34;;;;;;;14.00;9.07;;;;;;;5.07;100.00;101908.59;5162787;28;20055;-71
2022/12/06 05:15:05;;;;;;;17.00;8.60;;;;;;;5.18;100.00;101908.34;5185795;28;20038;-71
2022/12/06 05:17:37;;;;;;;13.07;7.87;;;;;;;5.15;100.00;101910.19;5161396;28;20383;-71
2022/12/06 05:20:08;;;;;;;13.73;8.07;;;;;;;5.16;100.00;101904.09;5156081;28;20038;-71
2022/12/06 05:22:40;;;;;;;13.63;8.00;;;;;;;5.15;100.00;101905.00;5163337;28;20355;-71
2022/12/06 05:25:11;;;;;;;14.47;8.50;;;;;;;5.14;100.00;101901.53;5154294;28;20019;-71
2022/12/06 05:27:43;;;;;;;14.47;8.07;;;;;;;5.13;100.00;101901.56;5154235;28;20023;-71
2022/12/06 05:30:15;;;;;;;13.23;7.80;;;;;;;5.16;100.00;101904.97;5153573;28;20510;-71
2022/12/06 05:32:46;;;;;;;14.83;7.60;;;;;;;5.06;100.00;101904.25;5154706;28;20086;-71
2022/12/06 05:35:17;;;;;;;16.37;7.37;;;;;;;4.99;100.00;101897.50;5154520;28;20098;-70
2022/12/06 05:37:49;;;;;;;14.00;7.73;;;;;;;5.10;100.00;101905.06;5154092;28;20027;-71
2022/12/06 05:40:20;;;;;;;9.77;7.40;;;;;;;5.06;100.00;101896.47;5154445;28;20026;-71
2022/12/06 05:42:51;;;;;;;23.53;9.83;;;;;;;5.02;100.00;101897.44;5153088;28;20031;-71
2022/12/06 05:45:22;;;;;;;13.87;8.03;;;;;;;5.10;100.00;101899.88;5153856;28;20085;-71
2022/12/06 05:47:54;;;;;;;20.93;9.40;;;;;;;4.98;100.00;101906.16;5154207;28;20386;-71
2022/12/06 05:50:25;;;;;;;14.80;9.30;;;;;;;4.92;100.00;101901.94;5195023;28;20445;-71
2022/12/06 05:52:58;;;;;;;15.03;8.50;;;;;;;5.03;100.00;101904.31;5156002;28;20402;-71
2022/12/06 05:55:30;;;;;;;20.17;8.80;;;;;;;5.07;100.00;101902.53;5154183;28;20019;-70
2022/12/06 05:58:01;;;;;;;15.03;8.53;;;;;;;5.01;100.00;101900.91;5153081;28;20038;-70
2022/12/06 06:00:33;;;;;;;12.73;7.10;;;;;;;4.97;100.00;101904.47;5154618;28;20125;-71
2022/12/06 06:03:04;;;;;;;14.77;7.70;;;;;;;4.90;100.00;101908.06;5167621;28;20027;-71
2022/12/06 06:05:35;;;;;;;11.53;7.37;;;;;;;5.03;100.00;101913.84;5154101;29;20034;-71
2022/12/06 06:08:07;;;;;;;14.40;7.40;;;;;;;5.01;100.00;101898.31;5157859;28;20081;-71
2022/12/06 06:10:38;;;;;;;13.23;7.03;;;;;;;5.04;100.00;101906.06;5163987;28;20057;-71
2022/12/06 06:13:09;;;;;;;10.93;6.63;;;;;;;5.02;100.00;101899.16;5154240;28;20031;-71
2022/12/06 06:15:41;;;;;;;12.37;7.03;;;;;;;4.96;100.00;101894.94;5153207;29;20030;-71
2022/12/06 06:18:12;;;;;;;16.60;7.47;;;;;;;4.99;100.00;101907.03;5153180;28;20525;-71
2022/12/06 06:20:51;;;;;;;9.97;6.57;;;;;;;5.02;100.00;101909.56;5153684;28;20023;-71
2022/12/06 06:23:24;;;;;;;11.63;6.47;;;;;;;4.97;100.00;101910.47;5167304;28;20031;-71
2022/12/06 06:25:55;;;;;;;14.17;6.20;;;;;;;5.00;100.00;101906.13;5154022;29;20518;-71
2022/12/06 06:28:26;;;;;;;10.43;6.03;;;;;;;4.97;100.00;101897.50;5154122;28;20030;-71
2022/12/06 06:31:02;;;;;;;11.67;6.00;;;;;;;4.97;100.00;101913.09;5162665;28;20039;-71
2022/12/06 06:33:34;;;;;;;13.10;6.60;;;;;;;4.93;100.00;101902.78;5157156;28;20031;-71
2022/12/06 06:36:06;;;;;;;10.70;6.30;;;;;;;4.99;100.00;101905.28;5153284;28;20118;-71
2022/12/06 06:38:37;;;;;;;10.07;6.90;;;;;;;4.95;100.00;101903.63;5153768;29;20027;-71
2022/12/06 06:41:11;;;;;;;10.77;6.23;;;;;;;4.92;100.00;101906.28;5142741;28;20030;-71
2022/12/06 06:43:42;;;;;;;11.87;6.67;;;;;;;4.99;100.00;101902.69;5160157;28;20034;-72
2022/12/06 06:46:13;;;;;;;14.77;6.53;;;;;;;4.97;100.00;101909.66;5156257;28;20039;-71
2022/12/06 06:48:44;;;;;;;11.17;6.07;;;;;;;4.99;100.00;101907.03;5169817;28;20034;-70
2022/12/06 06:51:16;;;;;;;13.87;6.67;;;;;;;5.00;100.00;101903.53;5164513;28;20086;-71
2022/12/06 06:53:47;;;;;;;9.40;6.27;;;;;;;4.96;100.00;101903.59;5153766;28;20122;-72
2022/12/06 06:56:19;;;;;;;11.47;6.30;;;;;;;4.95;100.00;101895.84;5172562;28;20115;-72
2022/12/06 06:58:50;;;;;;;12.53;7.00;;;;;;;4.78;100.00;101897.00;5165946;28;20038;-72
2022/12/06 07:01:23;;;;;;;11.73;6.63;;;;;;;4.93;100.00;101902.78;5170569;28;20022;-72
2022/12/06 07:03:54;;;;;;;14.23;7.07;;;;;;;4.89;100.00;101896.81;5175709;28;20046;-72
2022/12/06 07:06:26;;;;;;;12.63;6.70;;;;;;;4.82;100.00;101900.38;5165738;28;20146;-72
2022/12/06 07:08:57;;;;;;;13.70;6.50;;;;;;;4.74;100.00;101899.69;5167248;28;20573;-72
2022/12/06 07:11:28;;;;;;;11.47;7.17;;;;;;;4.76;100.00;101905.72;5172867;28;20043;-72
2022/12/06 07:14:01;;;;;;;10.80;6.87;;;;;;;4.77;100.00;101903.06;5163526;28;20031;-71
2022/12/06 07:16:33;;;;;;;9.90;6.60;;;;;;;4.69;100.00;101900.63;5156639;28;20023;-74
2022/12/06 07:19:04;;;;;;;13.50;7.07;;;;;;;4.50;100.00;101902.69;5167408;28;20085;-72
2022/12/06 07:21:35;;;;;;;17.87;7.90;;;;;;;4.64;100.00;101912.84;5161004;28;20038;-73
2022/12/06 07:24:08;;;;;;;13.10;6.90;;;;;;;4.48;100.00;101909.66;5164112;28;20481;-72
2022/12/06 07:26:39;;;;;;;11.67;6.77;;;;;;;4.50;100.00;101914.81;5165660;28;20038;-71
2022/12/06 07:29:11;;;;;;;11.80;6.63;;;;;;;4.47;100.00;101910.50;5198443;28;20031;-73
2022/12/06 07:31:42;;;;;;;10.43;6.97;;;;;;;4.59;100.00;101914.66;5156267;28;20033;-74
2022/12/06 07:34:13;;;;;;;13.70;7.17;;;;;;;4.34;100.00;101908.16;5170228;28;20034;-73
2022/12/06 07:36:44;;;;;;;12.40;6.13;;;;;;;4.53;100.00;101914.75;5172266;28;20085;-73
2022/12/06 07:39:16;;;;;;;12.60;7.03;;;;;;;4.58;100.00;101906.00;5172175;28;20113;-73
2022/12/06 07:47:41;;;;;;;11.17;6.77;;;;;;;4.67;100.00;101919.69;5156539;28;20043;-73
2022/12/06 07:50:16;;;;;;;10.53;7.17;;;;;;;4.71;100.00;101918.78;5155780;28;20019;-73
2022/12/06 07:52:49;;;;;;;14.00;6.17;;;;;;;4.64;100.00;101917.16;5154560;29;20513;-73
2022/12/06 07:55:20;;;;;;;10.50;6.03;;;;;;;4.69;100.00;101925.72;5155349;28;20027;-73
2022/12/06 07:57:51;;;;;;;10.60;6.70;;;;;;;4.68;100.00;101924.00;5156177;28;20027;-73
2022/12/06 08:00:23;;;;;;;11.83;6.80;;;;;;;4.68;100.00;101934.38;5155720;28;20027;-74
2022/12/06 08:02:54;;;;;;;19.77;7.53;;;;;;;4.66;100.00;101930.97;5155533;28;20113;-73
2022/12/06 08:05:25;;;;;;;12.70;6.60;;;;;;;4.69;100.00;101925.72;5155696;28;20097;-72
2022/12/06 08:07:56;;;;;;;10.17;6.70;;;;;;;4.69;100.00;101925.72;5154632;28;20023;-72
2022/12/06 08:10:28;;;;;;;12.80;6.47;;;;;;;4.71;100.00;101935.19;5155038;28;20023;-72
2022/12/06 08:12:59;;;;;;;14.37;6.87;;;;;;;4.70;100.00;101927.44;5169872;28;20143;-72
2022/12/06 08:15:30;;;;;;;16.43;7.40;;;;;;;4.60;100.00;101932.78;5153622;29;20027;-72
2022/12/06 08:18:02;;;;;;;14.80;6.93;;;;;;;4.69;100.00;101936.97;5154539;28;20039;-72
2022/12/06 08:20:33;;;;;;;15.03;6.07;;;;;;;4.76;100.00;101934.25;5154284;28;21318;-72
2022/12/06 08:23:04;;;;;;;10.00;5.70;;;;;;;4.77;100.00;101931.63;5167856;28;20036;-73
2022/12/06 08:25:35;;;;;;;8.47;5.93;;;;;;;4.75;100.00;101942.94;5155993;28;20043;-73
2022/12/06 08:28:07;;;;;;;10.30;6.03;;;;;;;4.80;100.00;101931.56;5153440;28;20065;-72
2022/12/06 08:30:39;;;;;;;10.20;5.80;;;;;;;4.85;100.00;101936.69;5158158;28;20027;-73
2022/12/06 08:33:10;;;;;;;10.60;5.73;;;;;;;4.75;100.00;101925.59;5155682;28;20063;-72
2022/12/06 08:35:42;;;;;;;9.00;6.00;;;;;;;4.74;100.00;101925.63;5149901;28;20402;-72
2022/12/06 08:38:14;;;;;;;15.00;6.07;;;;;;;4.86;100.00;101932.34;5159838;28;20098;-73
2022/12/06 08:40:45;;;;;;;11.60;5.97;;;;;;;4.83;100.00;101928.91;5158088;28;20024;-72
2022/12/06 08:43:16;;;;;;;9.80;6.00;;;;;;;4.88;100.00;101936.63;5158655;28;20397;-72
2022/12/06 08:45:51;;;;;;;13.37;6.67;;;;;;;4.80;100.00;101934.16;5185008;28;20015;-72
2022/12/06 08:48:22;;;;;;;13.02;6.95;;;;;;;4.69;100.00;101943.91;5157833;28;20027;-72
2022/12/06 08:50:54;;;;;;;8.83;5.90;;;;;;;4.71;100.00;101923.97;5158897;28;20034;-73
2022/12/06 08:53:25;;;;;;;10.40;5.73;;;;;;;4.83;100.00;101943.66;5168948;28;20517;-73
2022/12/06 08:55:56;;;;;;;9.60;5.47;;;;;;;4.72;100.00;101936.06;5169267;28;20026;-73
2022/12/06 08:58:28;;;;;;;9.23;5.30;;;;;;;4.64;100.00;101940.53;5169625;28;20022;-73
2022/12/06 09:00:59;;;;;;;9.73;6.03;;;;;;;4.51;100.00;101940.72;5168253;28;20038;-72
2022/12/06 09:03:30;;;;;;;12.93;6.23;;;;;;;4.55;100.00;101955.38;5167026;28;20073;-72
2022/12/06 09:06:02;;;;;;;9.73;5.33;;;;;;;4.62;100.00;101955.25;5168302;28;20486;-72
2022/12/06 09:08:34;;;;;;;11.70;6.13;;;;;;;4.62;100.00;101950.06;5154168;28;20717;-72
2022/12/06 09:11:07;;;;;;;9.30;6.03;;;;;;;4.55;100.00;101947.59;5152785;28;20051;-72
2022/12/06 09:13:39;;;;;;;7.80;5.30;;;;;;;4.53;100.00;101951.94;5158519;28;20069;-72
2022/12/06 09:16:14;;;;;;;10.87;7.20;;;;;;;4.63;100.00;101959.56;5170713;28;20101;-74
2022/12/06 09:18:46;;;;;;;11.53;6.07;;;;;;;4.71;100.00;101960.31;5154176;28;20467;-73
2022/12/06 09:21:24;;;;;;;12.50;6.63;;;;;;;4.77;100.00;101965.38;5153944;28;20030;-72
2022/12/06 09:23:56;;;;;;;15.73;7.87;;;;;;;4.79;100.00;101962.75;5166071;28;20082;-72
2022/12/06 09:26:28;;;;;;;11.20;6.40;;;;;;;4.69;100.00;101946.50;5154228;28;20038;-73
2022/12/06 09:28:59;;;;;;;14.87;6.60;;;;;;;4.87;100.00;101962.63;5196675;28;20379;-72
2022/12/06 09:31:31;;;;;;;13.00;7.20;;;;;;;5.85;100.00;101949.47;5158212;28;20030;-72
2022/12/06 09:34:02;;;;;;;7.03;5.50;;;;;;;7.30;100.00;101960.66;5154415;29;20039;-72
2022/12/06 09:36:41;;;;;;;11.80;4.57;;;;;;;7.67;100.00;101954.41;5158237;28;20359;-73
2022/12/06 09:39:19;;;;;;;7.43;4.33;;;;;;;7.55;100.00;101960.84;5154389;28;20039;-74
2022/12/06 09:42:21;;;;;;;6.03;3.80;;;;;;;7.34;100.00;101959.69;5160371;28;20043;-73
2022/12/06 09:45:20;;;;;;;8.60;4.50;;;;;;;6.90;100.00;101966.06;5198853;28;20548;-73
2022/12/06 09:48:22;;;;;;;7.43;3.60;;;;;;;6.77;100.00;101962.94;5147044;29;20030;-72
2022/12/06 09:51:23;;;;;;;8.33;4.20;;;;;;;6.64;100.00;101960.66;5168943;28;20106;-73
2022/12/06 09:53:57;;;;;;;9.57;3.53;;;;;;;6.27;100.00;101967.59;5166691;28;20030;-73
2022/12/06 09:56:41;;;;;;;8.32;4.22;;;;;;;6.28;100.00;101955.47;5169032;28;20031;-73
2022/12/06 09:59:35;;;;;;;7.83;3.93;;;;;;;6.25;100.00;101960.75;5153526;28;20077;-73
2022/12/06 10:02:34;;;;;;;6.20;3.80;;;;;;;6.17;100.00;101966.13;5154143;28;20035;-72
2022/12/06 10:05:31;;;;;;;6.73;3.97;;;;;;;6.08;100.00;101966.31;5170969;28;20611;-73
2022/12/06 10:08:35;;;;;;;7.97;4.43;;;;;;;6.11;100.00;101961.06;5164849;28;20498;-73
2022/12/06 10:11:39;;;;;;;7.50;4.47;;;;;;;6.01;100.00;101957.75;5153362;28;20047;-73
2022/12/06 10:14:55;;;;;;;8.43;5.10;;;;;;;5.98;100.00;101950.03;5152383;28;20023;-75
2022/12/06 10:17:34;;;;;;;6.18;4.63;;;;;;;5.83;100.00;101946.03;5166837;28;20035;-73
2022/12/06 10:20:37;;;;;;;9.33;4.77;;;;;;;5.97;100.00;101945.75;5150295;28;20053;-73
2022/12/06 10:23:27;;;;;;;8.77;5.07;;;;;;;5.94;100.00;101949.25;5147411;28;20043;-73
2022/12/06 10:26:50;;;;;;;7.93;4.50;;;;;;;6.01;100.00;101943.03;5160804;28;20042;-75
2022/12/06 10:29:32;;;;;;;8.53;5.33;;;;;;;6.03;100.00;101933.44;5155685;28;20457;-75
2022/12/06 10:32:16;;;;;;;7.13;4.77;;;;;;;6.17;100.00;101934.91;5163662;28;20039;-74
2022/12/06 10:34:57;;;;;;;10.03;5.03;;;;;;;6.28;100.00;101932.88;5156235;28;20030;-75
2022/12/06 10:37:57;;;;;;;9.53;4.83;;;;;;;6.32;100.00;101943.25;5162906;28;20426;-74
2022/12/06 10:40:36;;;;;;;9.37;4.87;;;;;;;6.18;100.00;101936.59;5151937;29;20513;-75
2022/12/06 10:43:24;;;;;;;7.97;4.23;;;;;;;6.36;100.00;101937.03;5163260;28;20043;-73
2022/12/06 10:49:14;;;;;;;7.10;3.77;;;;;;;6.23;100.00;101942.53;5178195;28;20039;-73
2022/12/06 10:52:03;;;;;;;8.90;3.77;;;;;;;6.22;100.00;101938.25;5156864;29;20020;-74
2022/12/06 10:54:41;;;;;;;7.03;4.40;;;;;;;6.17;100.00;101946.16;5157714;28;20023;-73
2022/12/06 10:57:28;;;;;;;9.57;3.80;;;;;;;6.18;100.00;101941.78;5167459;28;20035;-76
2022/12/06 11:00:33;;;;;;;9.37;3.97;;;;;;;6.29;100.00;101950.22;5164751;28;20034;-75
2022/12/06 11:03:10;;;;;;;8.38;3.97;;;;;;;6.24;100.00;101949.47;5157009;28;20027;-72
2022/12/06 11:05:47;;;;;;;10.27;3.97;;;;;;;6.18;100.00;101939.19;5188271;28;20122;-71
2022/12/06 11:08:22;;;;;;;7.30;3.70;;;;;;;6.21;100.00;101944.34;5155591;29;20849;-70
2022/12/06 11:10:56;;;;;;;7.50;4.43;;;;;;;6.18;100.00;101947.00;5156114;28;20051;-71
2022/12/06 11:13:52;;;;;;;5.83;3.57;;;;;;;6.32;100.00;101943.25;5169828;28;20085;-71
2022/12/06 11:16:29;;;;;;;7.23;2.73;;;;;;;6.44;100.00;101939.47;5155611;28;20059;-71
2022/12/06 11:19:34;;;;;;;7.03;3.33;;;;;;;6.42;100.00;101942.13;5156911;28;20418;-70
2022/12/06 11:22:33;;;;;;;5.63;2.63;;;;;;;6.49;100.00;101938.44;5156548;28;20604;-69
2022/12/06 11:25:22;;;;;;;6.83;2.70;;;;;;;6.50;100.00;101936.72;5156062;28;20034;-70
2022/12/06 11:28:20;;;;;;;7.53;3.17;;;;;;;6.47;100.00;101934.19;5156255;29;20103;-68
2022/12/06 11:30:55;;;;;;;6.00;2.60;;;;;;;6.56;100.00;101936.56;5160630;28;20047;-69
2022/12/06 11:33:31;;;;;;;8.57;3.35;;;;;;;6.63;100.00;101927.69;5172373;28;20397;-69
2022/12/06 11:36:05;;;;;;;5.77;2.43;;;;;;;6.65;100.00;101930.25;5168194;28;20034;-69
2022/12/06 11:38:39;;;;;;;7.13;2.40;;;;;;;6.60;100.00;101934.72;5172094;28;20574;-69
2022/12/06 11:41:19;;;;;;;4.00;2.40;;;;;;;6.68;100.00;101930.19;5172839;28;20022;-71
2022/12/06 11:43:52;;;;;;;6.73;2.80;;;;;;;6.65;100.00;101918.09;5170093;28;20039;-71
2022/12/06 11:46:25;;;;;;;7.87;2.97;;;;;;;6.67;100.00;101920.66;5169948;28;20038;-70
2022/12/06 11:49:11;;;;;;;5.17;2.23;;;;;;;6.67;100.00;101912.84;5173855;28;20102;-69
2022/12/06 11:51:42;;;;;;;7.87;2.70;;;;;;;6.68;100.00;101919.78;5174477;28;20359;-71
2022/12/06 11:54:26;;;;;;;4.53;2.30;;;;;;;6.81;100.00;101909.03;5166402;28;20027;-70
2022/12/06 11:57:08;;;;;;;4.20;2.38;;;;;;;6.81;100.00;101909.88;5171935;28;20466;-70
2022/12/06 12:00:16;;;;;;;4.97;2.23;;;;;;;6.77;100.00;101896.09;5169883;28;20038;-69
2022/12/06 12:02:50;;;;;;;7.03;2.77;;;;;;;6.62;100.00;101901.69;5167300;28;20034;-70
2022/12/06 12:05:21;;;;;;;4.97;1.75;;;;;;;6.64;100.00;101902.53;5154083;28;20046;-70
2022/12/06 12:07:57;;;;;;;5.37;2.50;;;;;;;6.66;100.00;101898.13;5155405;28;20482;-69
2022/12/06 12:10:43;;;;;;;7.87;2.20;;;;;;;6.67;100.00;101901.59;5154671;28;20027;-69
2022/12/06 12:16:21;;;;;;;5.22;1.85;;;;;;;6.74;100.00;101882.28;5158649;28;20043;-69
2022/12/06 12:19:01;;;;;;;5.57;2.08;;;;;;;6.79;100.00;101885.63;5166001;28;20518;-69
2022/12/06 12:21:41;;;;;;;5.73;3.03;;;;;;;6.69;100.00;101886.78;5154989;29;20106;-69
2022/12/06 12:24:46;;;;;;;6.47;2.00;;;;;;;6.73;100.00;101878.84;5153623;28;20027;-71
2022/12/06 12:27:39;;;;;;;4.68;2.28;;;;;;;6.67;100.00;101881.59;5159652;28;20062;-69
2022/12/06 12:30:24;;;;;;;5.87;2.07;;;;;;;6.57;100.00;101880.13;5172315;28;20035;-69
2022/12/06 12:33:15;;;;;;;;;;;;;;;6.75;100.00;101873.59;5169662;28;20691;-70
2022/12/06 12:36:02;;;;;;;4.77;2.57;;;;;;;6.60;100.00;101869.63;5164227;28;19915;-71